Littleton, CO (80124)

9:21 AM MST on February 13, 2016 (GMT -0700)
Collegiate and Quebec | | Change Station
CLOSE
Current Station
Personal Weather Station
Location: Highlands Ranch, CO
Elevation: 5929 ft
Nearby Weather Stations

Elev 5929 ft 39.55 °N, 104.91 °W | Updated 2 seconds ago

Mostly Cloudy
Mostly Cloudy
48.4 °F
Feels Like 48 °F
N
0.9
Wind Variable Wind from South
Gusts 3.0 mph

Today
High -- | Low -- °F
--% Chance of Precip.
Yesterday
High -- | Low -- °F
Precip. -- in
Pressure 30.05 in
Visibility 10.0 miles
Clouds Mostly Cloudy 12000 ft
Mostly Cloudy 20000 ft
Windchill 48 °F
Dew Point 25 °F
Humidity 39%
Rainfall 0.00 in
Snow Depth Not available.
6:54 AM 5:33 PM
Waxing Crescent, 32% visible
METAR KAPA 131553Z 12006KT 10SM BKN120 BKN200 08/M03 A3007 RMK AO2 SLP176 T00781033
Pressure 30.05 in
Visibility 10.0 miles
Clouds Mostly Cloudy 12000 ft
Mostly Cloudy 20000 ft
Windchill 48 °F
Dew Point 25 °F
Humidity 39%
Rainfall 0.00 in
Snow Depth Not available.
6:54 AM 5:33 PM
Waxing Crescent, 32% visible
METAR KAPA 131553Z 12006KT 10SM BKN120 BKN200 08/M03 A3007 RMK AO2 SLP176 T00781033

10-Day Weather Forecast

Almanac

Astronomy

Feb. 13, 2016 Rise Set
Actual Time
Civil Twilight
Nautical Twilight
Astronomical Twilight
Moon
Length of Visible Light
Length of Day
Tomorrow will be .
, % of the Moon is Illuminated

Today's Extremes

State Highs State Lows

Community

WunderPhotos

Upload Photos

1,892,599 photos uploaded!

WunderBlog® & News

Nearby

Air Quality

  Air Quality AQ Index Pollutant
Not available.

Snow Depth

Station Depth Elevation

Earthquake Activity

City Distance Mag. Time & Date
Minimum magnitude displayed is 2.5.

Coastal Water Temperatures

Place Temperature

Stations

Nearby Weather Stations

Station Location Temp. Windchill Dew Point Humidity Wind Precip. Elev Updated Type
                   

Watches & Warnings

There are currently no watches in effect.